createdAt,value
2023-04-11T00:00:14.752Z,48.07
2023-04-11T00:02:42.147Z,46.53
2023-04-11T00:05:09.873Z,55.37
2023-04-11T00:07:37.351Z,64.60
2023-04-11T00:10:04.914Z,69.97
2023-04-11T00:12:32.226Z,65.10
2023-04-11T00:14:59.414Z,67.37
2023-04-11T00:17:31.276Z,75.03
2023-04-11T00:20:01.804Z,68.33
2023-04-11T00:22:30.709Z,55.57
2023-04-11T00:24:57.907Z,58.20
2023-04-11T00:27:25.419Z,60.60
2023-04-11T00:29:57.998Z,56.30
2023-04-11T00:32:25.541Z,62.70
2023-04-11T00:34:52.760Z,68.60
2023-04-11T00:37:23.135Z,67.47
2023-04-11T00:39:54.274Z,75.57
2023-04-11T00:42:21.463Z,61.10
2023-04-11T00:44:50.215Z,63.67
2023-04-11T00:47:19.787Z,63.13
2023-04-11T00:49:46.991Z,55.80
2023-04-11T00:52:14.198Z,48.23
2023-04-11T00:54:41.510Z,48.07
2023-04-11T00:57:08.837Z,57.10
2023-04-11T00:59:36.083Z,47.83
2023-04-11T01:02:03.389Z,49.77
2023-04-11T01:04:30.731Z,46.60
2023-04-11T01:07:04.261Z,46.67
2023-04-11T01:09:32.997Z,43.63
2023-04-11T01:12:01.593Z,43.13
2023-04-11T01:14:29.728Z,43.57
2023-04-11T01:16:57.290Z,45.87
2023-04-11T01:19:26.292Z,44.80
2023-04-11T01:21:54.207Z,50.30
2023-04-11T01:24:21.516Z,48.10
2023-04-11T01:26:48.799Z,43.37
2023-04-11T01:29:16.330Z,44.67
2023-04-11T01:31:43.827Z,48.87
2023-04-11T01:34:13.402Z,45.27
2023-04-11T01:36:41.609Z,47.07
2023-04-11T01:39:08.966Z,48.67
2023-04-11T01:41:36.182Z,44.47
2023-04-11T01:44:04.167Z,41.17
2023-04-11T01:46:31.990Z,43.97
2023-04-11T01:49:03.750Z,43.20
2023-04-11T01:51:31.524Z,45.60
2023-04-11T01:53:58.694Z,44.80
2023-04-11T01:56:26.069Z,44.87
2023-04-11T01:58:53.631Z,42.87
2023-04-11T02:01:21.651Z,44.50
2023-04-11T02:03:49.152Z,47.20
2023-04-11T02:06:17.051Z,47.00
2023-04-11T02:08:44.831Z,42.97
2023-04-11T02:11:12.364Z,46.17
2023-04-11T02:13:39.558Z,45.30
2023-04-11T02:16:11.763Z,53.17
2023-04-11T02:18:39.092Z,52.63
2023-04-11T02:21:06.905Z,47.90
2023-04-11T02:23:34.435Z,44.53
2023-04-11T02:26:02.235Z,45.13
2023-04-11T02:28:29.853Z,46.97
2023-04-11T02:30:57.177Z,43.80
2023-04-11T02:33:24.421Z,43.70
2023-04-11T02:35:51.839Z,45.83
2023-04-11T02:38:19.117Z,43.70
2023-04-11T02:40:46.785Z,43.30
2023-04-11T02:43:14.049Z,46.40
2023-04-11T02:45:41.349Z,51.40
2023-04-11T02:48:08.571Z,42.27
2023-04-11T02:50:36.147Z,41.27
2023-04-11T02:53:03.476Z,45.83
2023-04-11T02:55:30.704Z,40.73
2023-04-11T02:57:58.552Z,46.60
2023-04-11T03:00:26.241Z,43.90
2023-04-11T03:02:56.514Z,45.23
2023-04-11T03:05:23.865Z,50.03
2023-04-11T03:07:51.295Z,48.17
2023-04-11T03:10:18.541Z,49.23
2023-04-11T03:12:45.992Z,46.83
2023-04-11T03:15:15.515Z,44.23
2023-04-11T03:17:42.884Z,46.83
2023-04-11T03:20:13.781Z,53.40
2023-04-11T03:22:41.108Z,48.13
2023-04-11T03:25:08.714Z,47.30
2023-04-11T03:27:35.968Z,44.97
2023-04-11T03:30:03.789Z,49.40
2023-04-11T03:32:31.401Z,44.77
2023-04-11T03:35:01.942Z,47.73
2023-04-11T03:37:29.238Z,49.40
2023-04-11T03:39:56.408Z,44.90
2023-04-11T03:42:23.732Z,49.73
2023-04-11T03:44:57.162Z,46.13
2023-04-11T03:47:24.413Z,51.50
2023-04-11T03:49:51.936Z,52.30
2023-04-11T03:52:19.298Z,53.00
2023-04-11T03:54:47.796Z,44.50
2023-04-11T03:57:15.546Z,49.40
2023-04-11T03:59:42.711Z,47.67
2023-04-11T04:02:09.988Z,46.03
2023-04-11T04:04:38.504Z,45.00
2023-04-11T04:07:05.871Z,39.47
2023-04-11T04:09:33.234Z,41.63
2023-04-11T04:12:01.776Z,46.23
2023-04-11T04:14:29.006Z,47.07
2023-04-11T04:16:56.216Z,42.50
2023-04-11T04:19:23.471Z,45.70
2023-04-11T04:21:50.721Z,46.53
2023-04-11T04:24:17.964Z,44.80
2023-04-11T04:26:46.070Z,53.10
2023-04-11T04:29:13.288Z,43.07
2023-04-11T04:31:41.198Z,46.13
2023-04-11T04:34:11.700Z,43.70
2023-04-11T04:36:49.149Z,43.47
2023-04-11T04:39:19.824Z,43.93
2023-04-11T04:41:58.316Z,47.80
2023-04-11T04:44:25.765Z,44.73
2023-04-11T04:46:56.097Z,40.57
2023-04-11T04:49:23.654Z,43.93
2023-04-11T04:51:50.869Z,45.97
2023-04-11T04:54:19.428Z,43.13
2023-04-11T04:56:48.338Z,42.30
2023-04-11T04:59:16.368Z,45.23
2023-04-11T05:01:44.407Z,41.47
2023-04-11T05:04:12.089Z,45.13
2023-04-11T05:06:39.486Z,43.90
2023-04-11T05:09:06.676Z,44.83
2023-04-11T05:11:34.120Z,43.17
2023-04-11T05:14:01.333Z,44.50
2023-04-11T05:16:28.593Z,43.30
2023-04-11T05:18:56.000Z,49.13
2023-04-11T05:21:24.342Z,43.13
2023-04-11T05:23:51.530Z,45.03
2023-04-11T05:26:18.884Z,41.70
2023-04-11T05:28:46.097Z,40.77
2023-04-11T05:31:13.280Z,39.20
2023-04-11T05:33:42.199Z,43.90
2023-04-11T05:36:14.336Z,43.33
2023-04-11T05:38:42.145Z,42.97
2023-04-11T05:41:09.831Z,42.90
2023-04-11T05:43:37.213Z,42.97
2023-04-11T05:46:04.834Z,41.77
2023-04-11T05:48:32.086Z,47.20
2023-04-11T05:50:59.326Z,47.73
2023-04-11T05:53:26.567Z,52.23
2023-04-11T05:55:53.751Z,47.93
2023-04-11T05:58:20.993Z,43.50
2023-04-11T06:00:49.760Z,43.03
2023-04-11T06:03:17.869Z,44.07
2023-04-11T06:05:45.121Z,44.73
2023-04-11T06:08:12.395Z,48.00
2023-04-11T06:10:39.643Z,48.93
2023-04-11T06:13:06.980Z,47.33
2023-04-11T06:15:34.328Z,41.53
2023-04-11T06:18:01.724Z,41.57
2023-04-11T06:20:29.106Z,45.33
2023-04-11T06:22:57.077Z,41.70
2023-04-11T06:25:24.816Z,45.40
2023-04-11T06:27:52.097Z,44.33
2023-04-11T06:30:19.256Z,42.83
2023-04-11T06:32:46.578Z,42.57
2023-04-11T06:35:13.797Z,42.90
2023-04-11T06:37:42.432Z,48.70
2023-04-11T06:40:10.061Z,40.97
2023-04-11T06:42:37.315Z,43.57
2023-04-11T06:45:06.289Z,40.57
2023-04-11T06:47:33.806Z,40.00
2023-04-11T06:50:01.061Z,42.63
2023-04-11T06:52:28.441Z,42.47
2023-04-11T06:54:55.864Z,42.40
2023-04-11T06:57:23.130Z,37.77
2023-04-11T06:59:50.598Z,39.43
2023-04-11T07:02:17.886Z,41.00
2023-04-11T07:04:45.293Z,38.90
2023-04-11T07:07:12.597Z,40.50
2023-04-11T07:09:39.867Z,39.70
2023-04-11T07:12:07.078Z,40.53
2023-04-11T07:14:34.270Z,38.13
2023-04-11T07:17:01.554Z,34.37
2023-04-11T07:19:28.884Z,33.83
2023-04-11T07:21:57.020Z,35.83
2023-04-11T07:24:24.209Z,36.50
2023-04-11T07:26:52.021Z,34.70
2023-04-11T07:29:19.250Z,34.17
2023-04-11T07:31:46.669Z,39.13
2023-04-11T07:34:13.991Z,36.60
2023-04-11T07:36:42.078Z,45.63
2023-04-11T07:39:12.288Z,36.13
2023-04-11T07:41:39.662Z,34.07
2023-04-11T07:44:07.466Z,33.10
2023-04-11T07:46:34.988Z,37.90
2023-04-11T07:49:02.197Z,36.33
2023-04-11T07:51:31.346Z,48.63
2023-04-11T07:53:58.642Z,39.17
2023-04-11T07:56:26.086Z,30.90
2023-04-11T07:58:53.273Z,33.03
2023-04-11T08:01:21.452Z,30.07
2023-04-11T08:03:48.773Z,32.67
2023-04-11T08:06:16.155Z,29.70
2023-04-11T08:08:43.330Z,28.83
2023-04-11T08:11:10.829Z,30.80
2023-04-11T08:13:38.083Z,31.20
2023-04-11T08:16:09.713Z,29.70
2023-04-11T08:18:37.465Z,29.77
2023-04-11T08:21:04.806Z,33.20
2023-04-11T08:23:31.987Z,25.05
2023-04-11T08:25:59.227Z,22.90
2023-04-11T08:28:26.572Z,29.30
2023-04-11T08:30:55.441Z,28.97
2023-04-11T08:33:26.186Z,27.63
2023-04-11T08:35:53.421Z,30.97
2023-04-11T08:38:21.366Z,29.80
2023-04-11T08:40:48.591Z,30.02
2023-04-11T08:43:15.945Z,33.40
2023-04-11T08:45:43.397Z,30.00
2023-04-11T08:48:12.451Z,27.95
2023-04-11T08:50:42.803Z,29.60
2023-04-11T08:53:10.675Z,29.50
2023-04-11T08:55:45.903Z,31.23
2023-04-11T08:58:13.366Z,28.70
2023-04-11T09:00:40.850Z,30.15
2023-04-11T09:03:09.262Z,29.58
2023-04-11T09:05:36.569Z,29.20
2023-04-11T09:08:06.447Z,34.70
2023-04-11T09:10:33.760Z,31.23
2023-04-11T09:13:02.191Z,29.93
2023-04-11T09:15:30.587Z,32.83
2023-04-11T09:18:00.659Z,29.43
2023-04-11T09:20:31.362Z,28.90
2023-04-11T09:22:59.128Z,29.85
2023-04-11T09:25:26.397Z,27.83
2023-04-11T09:28:09.937Z,28.73
2023-04-11T09:30:37.395Z,31.67
2023-04-11T09:33:31.708Z,31.55
2023-04-11T09:35:58.922Z,31.08
2023-04-11T09:38:33.840Z,35.80
2023-04-11T09:41:05.454Z,26.95
2023-04-11T09:43:51.889Z,36.28
2023-04-11T09:46:21.267Z,27.77
2023-04-11T09:48:49.205Z,30.38
2023-04-11T09:51:28.227Z,28.10
2023-04-11T09:54:03.702Z,26.88
2023-04-11T09:56:31.731Z,30.20
2023-04-11T09:59:00.580Z,30.40
2023-04-11T10:01:28.155Z,27.50
2023-04-11T10:03:57.210Z,29.15
2023-04-11T10:07:02.153Z,23.20
2023-04-11T10:09:30.043Z,28.50
2023-04-11T10:11:57.420Z,25.48
2023-04-11T10:14:41.368Z,22.98
2023-04-11T10:17:19.752Z,26.90
2023-04-11T10:19:49.282Z,27.25
2023-04-11T10:22:47.149Z,27.85
2023-04-11T10:25:18.475Z,24.88
2023-04-11T10:27:49.954Z,26.65
2023-04-11T10:30:17.389Z,24.25
2023-04-11T10:33:03.588Z,22.20
2023-04-11T10:35:31.076Z,21.17
2023-04-11T10:37:58.377Z,19.73
2023-04-11T10:40:27.247Z,18.92
2023-04-11T10:42:54.465Z,18.20
2023-04-11T10:45:32.364Z,18.83
2023-04-11T10:47:59.608Z,20.80
2023-04-11T10:50:26.892Z,21.13
2023-04-11T10:52:54.854Z,20.35
2023-04-11T10:55:22.860Z,20.02
2023-04-11T10:58:08.556Z,17.73
2023-04-11T11:00:50.706Z,14.88
2023-04-11T11:03:30.216Z,16.17
2023-04-11T11:06:03.582Z,12.35
2023-04-11T11:08:38.180Z,13.82
2023-04-11T11:11:08.989Z,14.25
2023-04-11T11:13:40.170Z,14.40
2023-04-11T11:16:08.206Z,14.20
2023-04-11T11:18:36.233Z,13.87
2023-04-11T11:21:03.820Z,12.77
2023-04-11T11:23:31.655Z,13.40
2023-04-11T11:26:00.257Z,12.83
2023-04-11T11:30:59.616Z,13.97
2023-04-11T11:33:27.357Z,13.53
2023-04-11T11:36:01.652Z,12.23
2023-04-11T11:38:30.355Z,13.57
2023-04-11T11:40:58.265Z,14.10
2023-04-11T11:43:27.497Z,13.03
2023-04-11T11:46:08.823Z,14.27
2023-04-11T11:48:36.594Z,14.27
2023-04-11T11:51:03.839Z,15.40
2023-04-11T11:53:31.253Z,15.63
2023-04-11T11:55:59.416Z,13.17
2023-04-11T11:58:27.313Z,13.73
2023-04-11T12:00:54.594Z,13.83
2023-04-11T12:03:23.975Z,13.10
2023-04-11T12:05:52.930Z,12.10
2023-04-11T12:08:22.165Z,12.70
2023-04-11T12:10:50.621Z,13.37
2023-04-11T12:13:22.357Z,11.10
2023-04-11T12:15:54.203Z,12.00
2023-04-11T12:18:22.446Z,12.13
2023-04-11T12:20:49.938Z,11.50
2023-04-11T12:23:17.326Z,15.10
2023-04-11T12:25:48.645Z,14.50
2023-04-11T12:28:16.746Z,14.47
2023-04-11T12:30:44.151Z,14.20
2023-04-11T12:33:15.152Z,12.77
2023-04-11T12:35:48.711Z,15.07
2023-04-11T12:38:17.857Z,18.90
2023-04-11T12:40:50.998Z,15.83
2023-04-11T12:43:21.527Z,14.87
2023-04-11T12:46:00.469Z,14.23
2023-04-11T12:48:47.772Z,12.53
2023-04-11T12:51:21.128Z,10.57
2023-04-11T12:53:48.961Z,11.70
2023-04-11T12:56:17.198Z,11.43
2023-04-11T12:59:39.511Z,10.90
2023-04-11T13:02:10.679Z,8.33
2023-04-11T13:04:38.033Z,6.93
2023-04-11T13:07:05.435Z,6.80
2023-04-11T13:09:32.684Z,6.27
2023-04-11T13:12:01.743Z,7.43
2023-04-11T13:14:29.066Z,6.30
2023-04-11T13:16:56.340Z,7.27
2023-04-11T13:19:23.815Z,6.50
2023-04-11T13:21:51.114Z,5.03
2023-04-11T13:24:18.329Z,6.47
2023-04-11T13:26:45.822Z,4.80
2023-04-11T13:29:13.195Z,6.00
2023-04-11T13:31:41.101Z,6.93
2023-04-11T13:34:34.968Z,6.13
2023-04-11T13:37:02.500Z,7.07
2023-04-11T13:39:29.875Z,5.27
2023-04-11T13:41:57.126Z,6.13
2023-04-11T13:44:24.343Z,5.47
2023-04-11T13:46:51.644Z,4.50
2023-04-11T13:49:19.002Z,6.27
2023-04-11T13:51:46.483Z,6.70
2023-04-11T13:54:13.740Z,5.43
2023-04-11T13:56:41.703Z,5.97
2023-04-11T13:59:09.122Z,5.53
2023-04-11T14:01:36.552Z,6.03
2023-04-11T14:04:04.302Z,6.97
2023-04-11T14:06:31.909Z,5.90
2023-04-11T14:08:59.124Z,5.17
2023-04-11T14:11:26.364Z,5.70
2023-04-11T14:13:53.665Z,6.27
2023-04-11T14:16:21.036Z,7.27
2023-04-11T14:18:48.323Z,5.50
2023-04-11T14:21:15.687Z,6.33
2023-04-11T14:23:42.880Z,6.87
2023-04-11T14:26:10.061Z,6.77
2023-04-11T14:28:37.423Z,6.77
2023-04-11T14:31:04.810Z,6.33
2023-04-11T14:33:32.354Z,7.13
2023-04-11T14:35:59.808Z,9.57
2023-04-11T14:38:27.022Z,7.50
2023-04-11T14:40:54.162Z,8.00
2023-04-11T14:43:21.353Z,8.63
2023-04-11T14:45:48.630Z,7.47
2023-04-11T14:48:16.335Z,7.00
2023-04-11T14:50:43.935Z,6.53
2023-04-11T14:53:11.277Z,11.03
2023-04-11T14:55:39.897Z,12.57
2023-04-11T14:58:07.530Z,7.90
2023-04-11T15:00:35.277Z,11.07
2023-04-11T15:03:03.366Z,12.37
2023-04-11T15:05:34.382Z,12.07
2023-04-11T15:08:02.364Z,12.90
2023-04-11T15:10:32.221Z,13.77
2023-04-11T15:12:59.683Z,11.90
2023-04-11T15:15:29.731Z,10.00
2023-04-11T15:18:29.348Z,9.33
2023-04-11T15:20:57.445Z,8.93
2023-04-11T15:23:25.321Z,9.83
2023-04-11T15:25:54.347Z,9.80
2023-04-11T15:28:25.106Z,17.57
2023-04-11T15:30:53.135Z,16.43
2023-04-11T15:33:24.038Z,13.93
2023-04-11T15:35:57.747Z,13.87
2023-04-11T15:38:26.168Z,11.73
2023-04-11T15:40:57.105Z,12.40
2023-04-11T15:43:24.827Z,11.10
2023-04-11T15:45:56.593Z,12.73
2023-04-11T15:48:23.802Z,12.93
2023-04-11T15:50:51.188Z,13.57
2023-04-11T15:53:21.485Z,10.47
2023-04-11T15:55:51.325Z,9.47
2023-04-11T15:58:18.653Z,8.90
2023-04-11T16:00:47.185Z,11.30
2023-04-11T16:03:16.648Z,17.60
2023-04-11T16:05:45.040Z,20.77
2023-04-11T16:08:12.255Z,13.30
2023-04-11T16:10:40.498Z,14.03
2023-04-11T16:13:11.014Z,11.63
2023-04-11T16:15:39.397Z,13.40
2023-04-11T16:18:06.844Z,12.30
2023-04-11T16:20:34.680Z,12.67
2023-04-11T16:23:02.042Z,8.17
2023-04-11T16:25:32.524Z,9.23
2023-04-11T16:27:59.873Z,10.47
2023-04-11T16:30:30.233Z,9.63
2023-04-11T16:32:57.503Z,11.00
2023-04-11T16:35:24.809Z,9.47
2023-04-11T16:37:52.369Z,7.70
2023-04-11T16:40:19.564Z,11.67
2023-04-11T16:42:46.699Z,11.77
2023-04-11T16:45:14.034Z,12.30
2023-04-11T16:47:45.047Z,10.30
2023-04-11T16:50:12.933Z,10.23
2023-04-11T16:52:40.674Z,13.03
2023-04-11T16:55:08.068Z,15.93
2023-04-11T16:57:35.704Z,13.47
2023-04-11T17:00:16.532Z,12.47
2023-04-11T17:02:43.893Z,9.23
2023-04-11T17:05:11.596Z,7.53
2023-04-11T17:07:38.878Z,7.47
2023-04-11T17:10:07.069Z,4.77
2023-04-11T17:12:34.213Z,6.33
2023-04-11T17:15:01.482Z,3.93
2023-04-11T17:17:28.732Z,4.60
2023-04-11T17:19:55.993Z,5.10
2023-04-11T17:22:23.313Z,6.70
2023-04-11T17:24:50.517Z,7.13
2023-04-11T17:27:17.693Z,5.93
2023-04-11T17:29:45.294Z,6.97
2023-04-11T17:32:12.546Z,5.53
2023-04-11T17:34:39.763Z,8.33
2023-04-11T17:37:06.921Z,10.80
2023-04-11T17:39:34.081Z,7.23
2023-04-11T17:42:01.352Z,7.63
2023-04-11T17:44:28.569Z,8.00
2023-04-11T17:46:56.666Z,9.40
2023-04-11T17:49:24.973Z,10.70
2023-04-11T17:51:59.146Z,7.27
2023-04-11T17:54:27.277Z,7.97
2023-04-11T17:56:54.865Z,8.53
2023-04-11T17:59:22.103Z,8.03
2023-04-11T18:01:49.428Z,6.97
2023-04-11T18:04:16.712Z,7.93
2023-04-11T18:06:46.138Z,8.93
2023-04-11T18:09:13.353Z,8.03
2023-04-11T18:11:42.053Z,12.33
2023-04-11T18:14:09.262Z,16.30
2023-04-11T18:16:38.754Z,20.23
2023-04-11T18:19:33.314Z,17.63
2023-04-11T18:22:01.414Z,18.07
2023-04-11T18:24:29.018Z,15.50
2023-04-11T18:26:57.214Z,13.33
2023-04-11T18:29:27.874Z,13.40
2023-04-11T18:32:19.865Z,14.63
2023-04-11T18:34:43.127Z,14.77
2023-04-11T18:37:10.348Z,13.23
2023-04-11T18:39:38.265Z,13.07
2023-04-11T18:42:05.482Z,12.83
2023-04-11T18:44:33.912Z,11.63
2023-04-11T18:49:30.168Z,11.20
2023-04-11T18:51:58.650Z,11.00
2023-04-11T18:54:25.905Z,12.43
2023-04-11T18:56:54.333Z,12.07
2023-04-11T18:59:24.851Z,8.87
2023-04-11T19:01:53.166Z,9.73
2023-04-11T19:04:20.885Z,10.57
2023-04-11T19:06:48.269Z,8.87
2023-04-11T19:09:15.469Z,9.23
2023-04-11T19:11:42.668Z,10.90
2023-04-11T19:14:10.633Z,11.97
2023-04-11T19:16:37.984Z,24.63
2023-04-11T19:19:05.804Z,30.77
2023-04-11T19:21:33.037Z,19.43
2023-04-11T19:24:00.588Z,14.33
2023-04-11T19:26:27.801Z,11.47
2023-04-11T19:28:55.632Z,11.43
2023-04-11T19:31:26.505Z,12.77
2023-04-11T19:33:53.805Z,10.90
2023-04-11T19:36:21.051Z,14.83
2023-04-11T19:38:48.256Z,16.40
2023-04-11T19:41:17.501Z,12.20
2023-04-11T19:43:55.017Z,12.07
2023-04-11T19:46:31.300Z,12.40
2023-04-11T19:49:38.320Z,12.13
2023-04-11T19:52:07.216Z,12.47
2023-04-11T19:54:41.672Z,12.33
2023-04-11T19:57:41.536Z,16.83
2023-04-11T20:00:34.288Z,14.20
2023-04-11T20:06:01.142Z,11.40
2023-04-11T20:08:43.104Z,9.37
2023-04-11T20:11:30.940Z,9.93
2023-04-11T20:14:01.396Z,7.93
2023-04-11T20:16:41.235Z,9.07
2023-04-11T20:19:12.934Z,9.00
2023-04-11T20:21:43.070Z,9.53
2023-04-11T20:24:16.687Z,14.80
2023-04-11T20:26:47.774Z,13.17
2023-04-11T20:29:20.991Z,9.43
2023-04-11T20:31:55.224Z,13.33
2023-04-11T20:34:24.745Z,9.27
2023-04-11T20:37:00.913Z,15.50
2023-04-11T20:39:30.137Z,11.57
2023-04-11T20:41:57.541Z,14.70
2023-04-11T20:44:26.467Z,10.53
2023-04-11T20:46:54.523Z,11.20
2023-04-11T20:49:21.812Z,15.03
2023-04-11T20:51:49.795Z,10.20
2023-04-11T20:54:17.013Z,11.90
2023-04-11T20:56:44.248Z,11.57
2023-04-11T20:59:12.509Z,12.40
2023-04-11T21:01:40.599Z,9.13
2023-04-11T21:04:09.946Z,14.37
2023-04-11T21:06:37.314Z,12.67
2023-04-11T21:09:05.585Z,12.23
2023-04-11T21:11:33.369Z,10.43
2023-04-11T21:14:00.683Z,14.20
2023-04-11T21:16:28.076Z,13.30
2023-04-11T21:18:55.389Z,11.17
2023-04-11T21:21:22.576Z,11.33
2023-04-11T21:23:49.837Z,9.80
2023-04-11T21:26:16.977Z,10.90
2023-04-11T21:28:44.202Z,10.93
2023-04-11T21:31:11.457Z,13.43
2023-04-11T21:33:38.635Z,11.23
2023-04-11T21:36:06.225Z,12.57
2023-04-11T21:38:33.435Z,11.17
2023-04-11T21:41:01.366Z,12.53
2023-04-11T21:43:28.733Z,10.03
2023-04-11T21:45:55.921Z,12.90
2023-04-11T21:48:23.213Z,11.27
2023-04-11T21:50:50.531Z,13.87
2023-04-11T21:53:18.265Z,13.43
2023-04-11T21:55:46.768Z,13.10
2023-04-11T21:58:27.918Z,11.37
2023-04-11T22:00:56.651Z,13.13
2023-04-11T22:03:24.332Z,9.13
2023-04-11T22:05:52.551Z,14.57
2023-04-11T22:08:22.993Z,15.20
2023-04-11T22:10:52.550Z,21.03
2023-04-11T22:13:20.730Z,13.80
2023-04-11T22:15:48.961Z,13.37
2023-04-11T22:18:16.225Z,12.27
2023-04-11T22:20:44.311Z,10.40
2023-04-11T22:23:12.793Z,15.90
2023-04-11T22:25:43.525Z,13.80
2023-04-11T22:28:20.875Z,14.23
2023-04-11T22:30:48.104Z,15.77
2023-04-11T22:33:15.827Z,15.77
2023-04-11T22:35:50.646Z,15.87
2023-04-11T22:38:17.964Z,8.57
2023-04-11T22:40:45.229Z,12.43
2023-04-11T22:43:12.418Z,8.83
2023-04-11T22:45:40.074Z,11.40
2023-04-11T22:48:07.458Z,10.80
2023-04-11T22:50:38.963Z,12.47
2023-04-11T22:53:09.286Z,12.10
2023-04-11T22:55:36.919Z,10.60
2023-04-11T22:58:04.176Z,7.87
2023-04-11T23:00:38.225Z,12.07
2023-04-11T23:03:07.358Z,9.50
2023-04-11T23:05:35.297Z,12.43
2023-04-11T23:08:02.485Z,11.17
2023-04-11T23:10:29.676Z,9.60
2023-04-11T23:12:56.875Z,9.40
2023-04-11T23:15:24.089Z,9.10
2023-04-11T23:17:51.327Z,9.00
2023-04-11T23:20:22.056Z,7.80
2023-04-11T23:22:49.251Z,11.37
2023-04-11T23:25:16.999Z,10.80
2023-04-11T23:27:45.071Z,8.83
2023-04-11T23:30:13.028Z,9.80
2023-04-11T23:32:40.882Z,10.50
2023-04-11T23:35:08.586Z,9.17
2023-04-11T23:37:35.803Z,9.80
2023-04-11T23:40:10.844Z,8.80
2023-04-11T23:42:39.094Z,11.70
2023-04-11T23:45:07.183Z,9.13
2023-04-11T23:47:34.651Z,8.17
2023-04-11T23:50:02.825Z,11.13
2023-04-11T23:52:30.490Z,8.03
2023-04-11T23:54:58.473Z,10.43
2023-04-11T23:57:25.625Z,11.97
2023-04-11T23:59:52.837Z,8.90
